createdAt,value
2024-04-13T00:02:17.081Z,6.30
2024-04-13T00:04:44.077Z,5.80
2024-04-13T00:07:11.054Z,5.32
2024-04-13T00:09:38.266Z,4.60
2024-04-13T00:12:05.728Z,5.07
2024-04-13T00:14:34.837Z,5.13
2024-04-13T00:17:03.241Z,4.25
2024-04-13T00:19:30.313Z,5.55
2024-04-13T00:22:01.832Z,11.00
2024-04-13T00:24:29.482Z,5.10
2024-04-13T00:26:56.424Z,11.45
2024-04-13T00:29:24.137Z,9.70
2024-04-13T00:31:51.156Z,5.00
2024-04-13T00:34:18.070Z,4.80
2024-04-13T00:36:44.903Z,4.53
2024-04-13T00:39:13.022Z,4.55
2024-04-13T00:41:41.005Z,4.90
2024-04-13T00:44:08.329Z,7.93
2024-04-13T00:46:35.657Z,6.20
2024-04-13T00:49:12.574Z,5.13
2024-04-13T00:51:42.875Z,4.28
2024-04-13T00:54:10.669Z,4.60
2024-04-13T00:56:41.613Z,3.92
2024-04-13T00:59:10.046Z,4.10
2024-04-13T01:01:38.118Z,5.75
2024-04-13T01:04:06.306Z,5.05
2024-04-13T01:06:33.839Z,3.65
2024-04-13T01:09:04.849Z,3.72
2024-04-13T01:11:32.289Z,3.92
2024-04-13T01:13:59.222Z,4.50
2024-04-13T01:16:30.440Z,6.07
2024-04-13T01:18:58.098Z,8.43
2024-04-13T01:21:25.329Z,4.72
2024-04-13T01:24:02.555Z,14.65
2024-04-13T01:26:30.011Z,9.70
2024-04-13T01:28:56.892Z,6.05
2024-04-13T01:31:25.059Z,6.90
2024-04-13T01:33:52.056Z,6.30
2024-04-13T01:36:19.528Z,10.02
2024-04-13T01:38:46.477Z,18.80
2024-04-13T01:41:13.329Z,16.95
2024-04-13T01:43:40.119Z,5.82
2024-04-13T01:46:07.205Z,6.63
2024-04-13T01:48:34.624Z,7.28
2024-04-13T01:51:02.276Z,7.57
2024-04-13T01:53:29.158Z,6.93
2024-04-13T01:55:56.143Z,6.43
2024-04-13T01:58:23.268Z,5.72
2024-04-13T02:00:50.293Z,5.38
2024-04-13T02:03:17.435Z,4.82
2024-04-13T02:05:44.748Z,5.43
2024-04-13T02:08:11.917Z,5.97
2024-04-13T02:10:38.920Z,9.32
2024-04-13T02:13:07.832Z,12.57
2024-04-13T02:15:34.957Z,10.27
2024-04-13T02:18:02.370Z,8.43
2024-04-13T02:20:29.716Z,5.43
2024-04-13T02:22:56.823Z,6.18
2024-04-13T02:25:23.692Z,5.20
2024-04-13T02:27:50.594Z,4.78
2024-04-13T02:30:17.466Z,4.25
2024-04-13T02:32:44.465Z,4.45
2024-04-13T02:35:11.433Z,4.90
2024-04-13T02:37:38.262Z,4.60
2024-04-13T02:40:09.435Z,4.38
2024-04-13T02:42:38.358Z,4.40
2024-04-13T02:45:06.846Z,4.15
2024-04-13T02:47:33.819Z,4.50
2024-04-13T02:50:00.759Z,4.47
2024-04-13T02:52:29.783Z,4.68
2024-04-13T02:54:56.709Z,3.95
2024-04-13T02:57:25.494Z,3.78
2024-04-13T02:59:52.877Z,4.43
2024-04-13T03:02:21.190Z,3.55
2024-04-13T03:04:51.968Z,3.15
2024-04-13T03:07:19.568Z,3.35
2024-04-13T03:09:50.218Z,3.38
2024-04-13T03:12:17.223Z,3.13
2024-04-13T03:14:44.864Z,3.72
2024-04-13T03:17:12.166Z,3.33
2024-04-13T03:19:40.268Z,3.03
2024-04-13T03:22:07.101Z,3.70
2024-04-13T03:24:36.966Z,3.67
2024-04-13T03:27:04.348Z,3.55
2024-04-13T03:29:31.400Z,3.38
2024-04-13T03:31:58.407Z,3.40
2024-04-13T03:34:27.736Z,3.53
2024-04-13T03:36:55.557Z,3.30
2024-04-13T03:39:23.239Z,3.78
2024-04-13T03:41:50.220Z,3.58
2024-04-13T03:44:17.381Z,3.72
2024-04-13T03:46:44.207Z,3.65
2024-04-13T03:49:11.246Z,3.60
2024-04-13T03:51:38.242Z,4.10
2024-04-13T03:54:05.221Z,3.65
2024-04-13T03:56:33.768Z,3.70
2024-04-13T03:59:00.679Z,3.88
2024-04-13T04:01:27.676Z,4.28
2024-04-13T04:03:55.198Z,4.10
2024-04-13T04:06:22.666Z,4.20
2024-04-13T04:08:49.545Z,4.35
2024-04-13T04:11:16.402Z,4.93
2024-04-13T04:13:43.292Z,4.60
2024-04-13T04:16:10.229Z,4.82
2024-04-13T04:18:37.279Z,4.75
2024-04-13T04:21:04.479Z,5.10
2024-04-13T04:23:31.406Z,4.85
2024-04-13T04:25:58.304Z,4.30
2024-04-13T04:28:25.192Z,4.45
2024-04-13T04:30:52.051Z,4.35
2024-04-13T04:33:19.055Z,4.15
2024-04-13T04:35:46.041Z,4.57
2024-04-13T04:38:14.043Z,4.30
2024-04-13T04:40:41.167Z,4.68
2024-04-13T04:43:08.041Z,4.72
2024-04-13T04:45:36.078Z,4.22
2024-04-13T04:48:03.208Z,4.15
2024-04-13T04:50:30.126Z,4.45
2024-04-13T04:52:57.001Z,4.13
2024-04-13T04:55:23.826Z,4.07
2024-04-13T04:57:50.789Z,3.92
2024-04-13T05:00:17.712Z,4.03
2024-04-13T05:02:44.697Z,4.43
2024-04-13T05:05:11.515Z,6.00
2024-04-13T05:07:39.516Z,5.35
2024-04-13T05:10:10.001Z,5.47
2024-04-13T05:12:37.263Z,9.25
2024-04-13T05:15:04.578Z,10.68
2024-04-13T05:17:31.547Z,9.82
2024-04-13T05:19:58.528Z,10.35
2024-04-13T05:22:25.350Z,9.35
2024-04-13T05:24:52.245Z,7.85
2024-04-13T05:27:20.311Z,6.78
2024-04-13T05:29:53.685Z,6.13
2024-04-13T05:32:20.740Z,5.60
2024-04-13T05:34:47.611Z,6.40
2024-04-13T05:37:14.453Z,5.60
2024-04-13T05:39:41.420Z,5.15
2024-04-13T05:42:08.308Z,5.47
2024-04-13T05:44:35.259Z,5.20
2024-04-13T05:47:02.068Z,5.80
2024-04-13T05:49:28.945Z,5.93
2024-04-13T05:51:55.826Z,4.95
2024-04-13T05:56:49.758Z,4.43
2024-04-13T05:59:16.616Z,4.63
2024-04-13T06:01:43.571Z,4.30
2024-04-13T06:04:10.520Z,4.53
2024-04-13T06:06:37.564Z,4.15
2024-04-13T06:09:06.948Z,3.47
2024-04-13T06:11:33.787Z,3.40
2024-04-13T06:14:00.862Z,3.13
2024-04-13T06:16:27.722Z,2.88
2024-04-13T06:18:54.664Z,3.05
2024-04-13T06:21:21.595Z,3.10
2024-04-13T06:23:48.451Z,2.75
2024-04-13T06:26:15.296Z,3.40
2024-04-13T06:28:42.150Z,3.38
2024-04-13T06:31:08.997Z,3.78
2024-04-13T06:33:36.012Z,3.75
2024-04-13T06:36:03.110Z,4.63
2024-04-13T06:38:31.338Z,3.45
2024-04-13T06:40:58.587Z,3.58
2024-04-13T06:43:28.516Z,3.42
2024-04-13T06:45:55.453Z,4.00
2024-04-13T06:48:22.302Z,4.10
2024-04-13T06:50:49.220Z,3.65
2024-04-13T06:53:17.179Z,4.05
2024-04-13T06:55:44.058Z,4.40
2024-04-13T06:58:11.268Z,4.10
2024-04-13T07:00:38.305Z,4.53
2024-04-13T07:03:05.908Z,4.57
2024-04-13T07:05:32.955Z,3.78
2024-04-13T07:07:59.804Z,4.28
2024-04-13T07:10:26.851Z,3.78
2024-04-13T07:12:53.700Z,3.95
2024-04-13T07:15:20.618Z,3.67
2024-04-13T07:17:50.896Z,3.30
2024-04-13T07:20:18.187Z,3.70
2024-04-13T07:22:45.012Z,3.67
2024-04-13T07:25:11.855Z,3.70
2024-04-13T07:27:38.766Z,3.40
2024-04-13T07:30:07.107Z,3.20
2024-04-13T07:32:34.132Z,2.78
2024-04-13T07:35:01.028Z,2.83
2024-04-13T07:37:27.896Z,2.95
2024-04-13T07:39:54.743Z,2.78
2024-04-13T07:42:21.691Z,2.60
2024-04-13T07:44:48.563Z,2.88
2024-04-13T07:47:15.538Z,2.72
2024-04-13T07:49:42.536Z,2.60
2024-04-13T07:52:09.485Z,2.60
2024-04-13T07:54:36.989Z,2.47
2024-04-13T07:57:04.184Z,2.63
2024-04-13T07:59:31.058Z,2.45
2024-04-13T08:01:57.849Z,2.40
2024-04-13T08:04:24.838Z,2.70
2024-04-13T08:06:52.422Z,2.70
2024-04-13T08:09:19.380Z,2.72
2024-04-13T08:11:46.297Z,2.60
2024-04-13T08:14:15.440Z,2.50
2024-04-13T08:16:43.547Z,2.92
2024-04-13T08:19:10.433Z,2.33
2024-04-13T08:21:37.302Z,2.47
2024-04-13T08:24:04.710Z,2.45
2024-04-13T08:26:31.582Z,2.47
2024-04-13T08:28:58.698Z,2.75
2024-04-13T08:31:25.665Z,3.13
2024-04-13T08:33:52.739Z,2.70
2024-04-13T08:36:19.685Z,2.78
2024-04-13T08:38:46.866Z,2.60
2024-04-13T08:41:24.755Z,2.75
2024-04-13T08:43:52.069Z,3.08
2024-04-13T08:46:21.320Z,2.75
2024-04-13T08:48:48.693Z,3.17
2024-04-13T08:51:15.840Z,2.60
2024-04-13T08:53:44.065Z,3.28
2024-04-13T08:56:12.615Z,2.80
2024-04-13T08:58:40.481Z,2.95
2024-04-13T09:01:13.904Z,2.92
2024-04-13T09:03:41.146Z,2.80
2024-04-13T09:06:10.299Z,3.67
2024-04-13T09:08:39.054Z,3.13
2024-04-13T09:11:10.111Z,3.40
2024-04-13T09:13:41.781Z,3.55
2024-04-13T09:16:10.245Z,3.72
2024-04-13T09:18:37.609Z,3.30
2024-04-13T09:21:04.797Z,3.40
2024-04-13T09:23:32.239Z,3.60
2024-04-13T09:26:08.616Z,4.20
2024-04-13T09:28:43.051Z,3.80
2024-04-13T09:31:11.646Z,4.72
2024-04-13T09:33:40.444Z,4.32
2024-04-13T09:36:09.070Z,4.18
2024-04-13T09:38:37.094Z,4.18
2024-04-13T09:41:04.285Z,4.35
2024-04-13T09:43:31.871Z,4.00
2024-04-13T09:46:05.650Z,4.07
2024-04-13T09:48:33.008Z,5.00
2024-04-13T09:51:00.278Z,4.65
2024-04-13T09:53:28.005Z,4.60
2024-04-13T09:55:54.851Z,4.70
2024-04-13T09:58:23.856Z,4.28
2024-04-13T10:00:51.682Z,4.82
2024-04-13T10:03:18.847Z,4.80
2024-04-13T10:05:46.518Z,5.05
2024-04-13T10:08:14.472Z,5.75
2024-04-13T10:10:51.465Z,5.80
2024-04-13T10:13:29.592Z,5.53
2024-04-13T10:16:00.026Z,5.47
2024-04-13T10:18:27.447Z,5.70
2024-04-13T10:20:58.145Z,6.07
2024-04-13T10:23:25.279Z,5.65
2024-04-13T10:25:59.195Z,5.68
2024-04-13T10:28:26.216Z,5.22
2024-04-13T10:30:58.370Z,5.53
2024-04-13T10:33:27.707Z,5.47
2024-04-13T10:36:04.948Z,4.95
2024-04-13T10:38:34.889Z,6.60
2024-04-13T10:41:05.625Z,4.57
2024-04-13T10:43:33.300Z,5.57
2024-04-13T10:46:03.143Z,5.03
2024-04-13T10:48:32.797Z,5.38
2024-04-13T10:51:01.363Z,5.30
2024-04-13T10:53:30.119Z,6.93
2024-04-13T10:55:59.578Z,6.40
2024-04-13T10:58:33.944Z,6.43
2024-04-13T11:01:01.682Z,6.65
2024-04-13T11:03:29.354Z,6.00
2024-04-13T11:05:57.454Z,5.63
2024-04-13T11:08:25.163Z,6.13
2024-04-13T11:11:00.377Z,6.32
2024-04-13T11:13:28.502Z,6.63
2024-04-13T11:15:55.754Z,6.20
2024-04-13T11:18:23.604Z,6.40
2024-04-13T11:20:56.296Z,6.60
2024-04-13T11:23:23.777Z,7.47
2024-04-13T11:25:50.972Z,6.35
2024-04-13T11:28:17.980Z,7.60
2024-04-13T11:30:44.954Z,7.55
2024-04-13T11:33:15.770Z,6.82
2024-04-13T11:35:53.161Z,7.55
2024-04-13T11:38:19.977Z,6.32
2024-04-13T11:40:51.080Z,6.43
2024-04-13T11:43:18.826Z,6.53
2024-04-13T11:45:46.348Z,6.20
2024-04-13T11:48:13.526Z,6.70
2024-04-13T11:50:40.576Z,6.57
2024-04-13T11:53:08.037Z,7.50
2024-04-13T11:55:38.693Z,6.68
2024-04-13T11:58:06.101Z,6.05
2024-04-13T12:00:33.071Z,6.38
2024-04-13T12:02:59.980Z,6.60
2024-04-13T12:05:27.537Z,6.13
2024-04-13T12:07:54.403Z,5.63
2024-04-13T12:10:21.967Z,5.60
2024-04-13T12:12:49.009Z,4.97
2024-04-13T12:15:16.106Z,5.15
2024-04-13T12:17:43.101Z,4.90
2024-04-13T12:20:10.307Z,5.60
2024-04-13T12:22:37.629Z,4.65
2024-04-13T12:25:04.959Z,4.43
2024-04-13T12:27:31.888Z,4.07
2024-04-13T12:30:00.998Z,4.32
2024-04-13T12:32:28.428Z,4.88
2024-04-13T12:34:55.275Z,4.03
2024-04-13T12:37:22.396Z,4.38
2024-04-13T12:39:49.529Z,3.90
2024-04-13T12:42:16.559Z,3.92
2024-04-13T12:44:44.133Z,3.80
2024-04-13T12:47:15.589Z,4.60
2024-04-13T12:52:09.745Z,3.05
2024-04-13T12:54:38.041Z,3.65
2024-04-13T12:57:05.512Z,3.28
2024-04-13T12:59:32.442Z,4.13
2024-04-13T13:01:59.297Z,3.10
2024-04-13T13:04:27.302Z,3.65
2024-04-13T13:06:54.748Z,3.03
2024-04-13T13:09:21.706Z,3.63
2024-04-13T13:11:48.583Z,3.30
2024-04-13T13:14:15.626Z,2.38
2024-04-13T13:16:42.549Z,2.65
2024-04-13T13:19:09.486Z,3.53
2024-04-13T13:21:36.351Z,3.00
2024-04-13T13:24:03.494Z,2.40
2024-04-13T13:26:30.315Z,3.13
2024-04-13T13:29:02.130Z,2.83
2024-04-13T13:31:29.207Z,2.25
2024-04-13T13:33:56.416Z,1.98
2024-04-13T13:36:23.284Z,2.70
2024-04-13T13:38:50.497Z,2.33
2024-04-13T13:41:17.806Z,2.42
2024-04-13T13:43:44.669Z,3.00
2024-04-13T13:46:11.578Z,3.45
2024-04-13T13:48:39.702Z,2.83
2024-04-13T13:51:06.800Z,2.70
2024-04-13T13:53:33.695Z,2.60
2024-04-13T13:56:00.598Z,2.58
2024-04-13T13:58:27.493Z,2.40
2024-04-13T14:00:55.653Z,2.35
2024-04-13T14:03:22.850Z,2.30
2024-04-13T14:05:49.786Z,2.38
2024-04-13T14:08:16.638Z,2.38
2024-04-13T14:10:43.511Z,2.78
2024-04-13T14:13:10.392Z,2.30
2024-04-13T14:15:38.710Z,2.45
2024-04-13T14:18:06.976Z,2.40
2024-04-13T14:20:33.927Z,2.55
2024-04-13T14:23:00.760Z,2.53
2024-04-13T14:25:27.813Z,2.38
2024-04-13T14:27:54.640Z,2.33
2024-04-13T14:30:22.384Z,2.20
2024-04-13T14:32:49.515Z,2.53
2024-04-13T14:35:17.203Z,2.15
2024-04-13T14:37:44.068Z,2.20
2024-04-13T14:40:11.742Z,2.28
2024-04-13T14:42:38.790Z,2.38
2024-04-13T14:45:08.740Z,2.03
2024-04-13T14:47:35.630Z,1.92
2024-04-13T14:50:04.013Z,1.85
2024-04-13T14:52:34.648Z,1.77
2024-04-13T14:55:03.722Z,1.50
2024-04-13T14:57:30.931Z,1.77
2024-04-13T14:59:57.779Z,2.03
2024-04-13T15:02:24.752Z,2.80
2024-04-13T15:04:51.769Z,2.40
2024-04-13T15:07:18.783Z,1.98
2024-04-13T15:09:45.756Z,2.00
2024-04-13T15:12:12.695Z,2.30
2024-04-13T15:14:39.569Z,2.03
2024-04-13T15:17:11.469Z,1.73
2024-04-13T15:19:39.123Z,2.05
2024-04-13T15:22:09.851Z,2.20
2024-04-13T15:24:37.287Z,1.80
2024-04-13T15:27:04.361Z,2.08
2024-04-13T15:29:31.264Z,2.20
2024-04-13T15:31:58.088Z,2.05
2024-04-13T15:34:25.064Z,2.47
2024-04-13T15:36:51.978Z,2.08
2024-04-13T15:39:19.015Z,2.20
2024-04-13T15:41:46.033Z,2.20
2024-04-13T15:44:12.883Z,2.58
2024-04-13T15:46:39.780Z,2.10
2024-04-13T15:49:06.751Z,1.90
2024-04-13T15:51:33.659Z,1.98
2024-04-13T15:54:08.359Z,2.25
2024-04-13T15:56:38.774Z,2.17
2024-04-13T15:59:06.334Z,1.83
2024-04-13T16:01:33.259Z,2.25
2024-04-13T16:04:00.265Z,2.00
2024-04-13T16:06:27.238Z,1.90
2024-04-13T16:08:54.046Z,1.65
2024-04-13T16:11:21.071Z,2.00
2024-04-13T16:13:49.366Z,2.00
2024-04-13T16:16:21.645Z,2.13
2024-04-13T16:18:54.157Z,2.20
2024-04-13T16:21:21.218Z,1.90
2024-04-13T16:23:48.284Z,1.77
2024-04-13T16:26:15.206Z,1.63
2024-04-13T16:28:42.085Z,1.63
2024-04-13T16:31:09.147Z,1.60
2024-04-13T16:33:36.266Z,2.33
2024-04-13T16:36:04.210Z,2.40
2024-04-13T16:38:31.184Z,1.90
2024-04-13T16:40:58.061Z,1.92
2024-04-13T16:43:24.943Z,1.73
2024-04-13T16:45:51.879Z,2.03
2024-04-13T16:48:18.896Z,1.90
2024-04-13T16:51:00.182Z,2.00
2024-04-13T16:53:27.900Z,1.88
2024-04-13T16:55:54.925Z,1.80
2024-04-13T16:58:23.793Z,2.10
2024-04-13T17:00:52.100Z,1.70
2024-04-13T17:03:19.455Z,1.88
2024-04-13T17:05:46.537Z,2.28
2024-04-13T17:08:14.792Z,2.13
2024-04-13T17:10:41.923Z,2.28
2024-04-13T17:13:08.924Z,1.90
2024-04-13T17:15:35.930Z,1.75
2024-04-13T17:18:03.092Z,1.92
2024-04-13T17:20:30.035Z,1.80
2024-04-13T17:22:56.939Z,1.90
2024-04-13T17:25:23.875Z,1.95
2024-04-13T17:27:50.876Z,2.25
2024-04-13T17:30:17.933Z,2.80
2024-04-13T17:32:44.828Z,2.45
2024-04-13T17:35:11.719Z,2.50
2024-04-13T17:37:38.596Z,2.40
2024-04-13T17:40:06.097Z,2.55
2024-04-13T17:42:33.034Z,2.03
2024-04-13T17:44:59.882Z,2.20
2024-04-13T17:47:26.925Z,2.30
2024-04-13T17:49:53.806Z,2.17
2024-04-13T17:52:20.670Z,2.13
2024-04-13T17:54:47.668Z,2.38
2024-04-13T17:57:14.613Z,2.60
2024-04-13T17:59:41.494Z,2.97
2024-04-13T18:02:08.400Z,2.72
2024-04-13T18:04:35.394Z,2.55
2024-04-13T18:07:02.358Z,2.70
2024-04-13T18:09:29.270Z,3.38
2024-04-13T18:11:56.107Z,3.38
2024-04-13T18:14:22.946Z,3.78
2024-04-13T18:16:49.802Z,3.40
2024-04-13T18:19:16.682Z,4.03
2024-04-13T18:21:43.573Z,3.13
2024-04-13T18:24:12.702Z,5.20
2024-04-13T18:26:39.822Z,4.57
2024-04-13T18:29:06.654Z,3.90
2024-04-13T18:31:33.553Z,3.70
2024-04-13T18:34:02.793Z,3.70
2024-04-13T18:36:32.870Z,3.50
2024-04-13T18:38:59.777Z,4.38
2024-04-13T18:41:26.741Z,3.97
2024-04-13T18:43:53.634Z,3.40
2024-04-13T18:46:21.536Z,3.40
2024-04-13T18:48:49.294Z,4.20
2024-04-13T18:51:16.302Z,4.80
2024-04-13T18:53:43.270Z,5.10
2024-04-13T18:56:12.973Z,5.65
2024-04-13T18:58:39.811Z,6.90
2024-04-13T19:01:07.656Z,6.28
2024-04-13T19:03:35.025Z,6.32
2024-04-13T19:06:01.957Z,5.72
2024-04-13T19:08:29.951Z,4.30
2024-04-13T19:10:56.927Z,3.53
2024-04-13T19:13:23.886Z,2.97
2024-04-13T19:16:07.238Z,2.90
2024-04-13T19:18:37.097Z,19.10
2024-04-13T19:21:04.497Z,35.67
2024-04-13T19:23:31.464Z,9.95
2024-04-13T19:25:59.332Z,5.40
2024-04-13T19:28:27.553Z,3.20
2024-04-13T19:30:55.119Z,3.10
2024-04-13T19:33:22.982Z,2.78
2024-04-13T19:35:50.170Z,2.38
2024-04-13T19:38:17.904Z,1.95
2024-04-13T19:40:46.606Z,2.30
2024-04-13T19:43:13.521Z,2.47
2024-04-13T19:45:40.446Z,2.90
2024-04-13T19:48:07.770Z,2.60
2024-04-13T19:50:36.050Z,2.47
2024-04-13T19:53:06.204Z,2.58
2024-04-13T19:55:34.277Z,2.10
2024-04-13T19:58:01.322Z,3.30
2024-04-13T20:00:28.318Z,3.95
2024-04-13T20:02:55.260Z,4.78
2024-04-13T20:05:22.268Z,4.50
2024-04-13T20:07:49.228Z,4.72
2024-04-13T20:10:19.396Z,5.07
2024-04-13T20:12:47.991Z,3.53
2024-04-13T20:15:33.701Z,3.67
2024-04-13T20:18:19.250Z,6.82
2024-04-13T20:20:46.372Z,9.05
2024-04-13T20:23:13.459Z,9.15
2024-04-13T20:25:40.534Z,9.20
2024-04-13T20:28:07.430Z,8.50
2024-04-13T20:30:34.436Z,7.47
2024-04-13T20:33:01.355Z,6.43
2024-04-13T20:35:28.206Z,6.65
2024-04-13T20:37:55.451Z,5.07
2024-04-13T20:40:22.332Z,4.40
2024-04-13T20:42:49.403Z,4.47
2024-04-13T20:45:16.843Z,3.95
2024-04-13T20:47:43.947Z,3.30
2024-04-13T20:50:10.840Z,3.97
2024-04-13T20:52:52.606Z,3.28
2024-04-13T20:55:24.400Z,3.53
2024-04-13T20:57:52.497Z,3.38
2024-04-13T21:00:19.504Z,3.35
2024-04-13T21:02:46.419Z,3.72
2024-04-13T21:05:13.422Z,3.40
2024-04-13T21:07:40.273Z,3.67
2024-04-13T21:10:07.599Z,3.70
2024-04-13T21:12:34.436Z,3.50
2024-04-13T21:15:01.345Z,3.67
2024-04-13T21:17:28.886Z,3.70
2024-04-13T21:19:55.815Z,4.00
2024-04-13T21:22:25.966Z,3.47
2024-04-13T21:24:55.729Z,3.45
2024-04-13T21:27:22.689Z,2.92
2024-04-13T21:29:49.657Z,2.85
2024-04-13T21:32:16.601Z,3.17
2024-04-13T21:34:43.571Z,3.13
2024-04-13T21:37:10.431Z,3.10
2024-04-13T21:39:37.674Z,3.25
2024-04-13T21:42:05.030Z,3.40
2024-04-13T21:44:31.906Z,3.15
2024-04-13T21:46:58.787Z,3.20
2024-04-13T21:49:25.690Z,3.42
2024-04-13T21:51:52.721Z,3.78
2024-04-13T21:54:19.736Z,2.70
2024-04-13T21:56:46.704Z,2.65
2024-04-13T21:59:13.645Z,3.15
2024-04-13T22:01:40.524Z,2.90
2024-04-13T22:04:07.586Z,3.10
2024-04-13T22:06:34.802Z,3.40
2024-04-13T22:09:01.904Z,2.65
2024-04-13T22:11:28.824Z,2.75
2024-04-13T22:13:56.057Z,2.63
2024-04-13T22:16:23.179Z,2.50
2024-04-13T22:18:50.112Z,2.83
2024-04-13T22:21:17.044Z,2.30
2024-04-13T22:23:43.894Z,2.47
2024-04-13T22:26:10.780Z,2.80
2024-04-13T22:28:37.602Z,2.75
2024-04-13T22:31:05.434Z,3.70
2024-04-13T22:33:32.434Z,4.30
2024-04-13T22:35:59.304Z,4.18
2024-04-13T22:38:26.134Z,3.42
2024-04-13T22:40:52.960Z,3.75
2024-04-13T22:43:23.578Z,3.28
2024-04-13T22:45:50.921Z,2.70
2024-04-13T22:48:18.253Z,3.10
2024-04-13T22:50:45.400Z,2.90
2024-04-13T22:53:12.290Z,2.90
2024-04-13T22:55:39.181Z,2.72
2024-04-13T22:58:06.025Z,3.00
2024-04-13T23:00:32.890Z,2.80
2024-04-13T23:02:59.812Z,2.85
2024-04-13T23:05:26.721Z,2.80
2024-04-13T23:07:53.557Z,2.70
2024-04-13T23:10:20.900Z,2.70
2024-04-13T23:12:48.516Z,2.72
2024-04-13T23:15:18.234Z,2.92
2024-04-13T23:17:45.369Z,2.50
2024-04-13T23:20:13.061Z,2.53
2024-04-13T23:22:39.979Z,2.15
2024-04-13T23:25:07.140Z,2.55
2024-04-13T23:27:34.910Z,3.00
2024-04-13T23:30:01.964Z,2.97
2024-04-13T23:32:28.995Z,2.22
2024-04-13T23:34:56.077Z,2.67
2024-04-13T23:37:22.922Z,2.50
2024-04-13T23:39:49.794Z,3.13
2024-04-13T23:42:16.651Z,2.80
2024-04-13T23:44:46.311Z,2.60
2024-04-13T23:47:13.271Z,2.10
2024-04-13T23:49:40.872Z,2.40
2024-04-13T23:52:09.228Z,2.60
2024-04-13T23:54:36.208Z,2.20
2024-04-13T23:57:03.135Z,2.33
2024-04-13T23:59:30.021Z,2.20
